This is the latest recevied weather packets stored in our database for station/object NK0Z-13. If no packets are shown the sender has not sent any weather packets the latest 10 day(s).
| Time | Temp. | Humidity | Pressure | Rain* | Wind** | Luminosity | Snow |
|---|---|---|---|---|---|---|---|
| 1777787865 | 8.89° C | 59% | 1019.4 hPa | 0 mm | - | 0 W/m² | - |
| 1777787263 | 8.89° C | 58% | 1019.2 hPa | 0 mm | - | 0 W/m² | - |
| 1777786664 | 10° C | 55% | 1019.3 hPa | 0 mm | - | 0 W/m² | - |
| 1777786064 | 10° C | 55% | 1019.3 hPa | 0 mm | - | 0 W/m² | - |
| 1777785462 | 10° C | 55% | 1019.3 hPa | 0 mm | - | 0 W/m² | - |
| 1777784856 | 10° C | 54% | 1019.5 hPa | 0 mm | - | 0 W/m² | - |
| 1777784256 | 9.44° C | 55% | 1019.7 hPa | 0 mm | - | 0 W/m² | - |
| 1777783656 | 9.44° C | 55% | 1019.7 hPa | 0 mm | - | 0 W/m² | - |
| 1777783050 | 8.33° C | 58% | 1019.6 hPa | 0 mm | - | 0 W/m² | - |
| 1777782449 | 8.33° C | 59% | 1020 hPa | 0 mm | - | 0 W/m² | - |
| 1777781848 | 8.89° C | 57% | 1019.9 hPa | 0 mm | - | 0 W/m² | - |
| 1777781243 | 9.44° C | 56% | 1019.9 hPa | 0 mm | - | 0 W/m² | - |
| 1777780643 | 10° C | 54% | 1020 hPa | 0 mm | - | 0 W/m² | - |
| 1777780044 | 10° C | 53% | 1020 hPa | 0 mm | - | 0 W/m² | - |
| 1777779438 | 10° C | 53% | 1020 hPa | 0 mm | - | 0 W/m² | - |
| 1777778834 | 8.89° C | 58% | 1020.3 hPa | 0 mm | - | 0 W/m² | - |
| 1777778228 | 8.33° C | 59% | 1020.2 hPa | 0 mm | - | 0 W/m² | - |
| 1777777628 | 9.44° C | 55% | 1020 hPa | 0 mm | - | 0 W/m² | - |
| 1777777027 | 10° C | 53% | 1020 hPa | 0 mm | - | 0 W/m² | - |
| 1777776427 | 10° C | 58% | 1019.8 hPa | 0 mm | - | 0 W/m² | - |
| 1777775827 | 10° C | 53% | 1019.9 hPa | 0 mm | - | 0 W/m² | - |
| 1777775226 | 11.11° C | 55% | 1019.8 hPa | 0 mm | - | 0 W/m² | - |
| 1777774622 | 12.78° C | 45% | 1019.7 hPa | 0 mm | - | 0 W/m² | - |
| 1777774022 | 13.33° C | 41% | 1019.7 hPa | 0 mm | - | 0 W/m² | - |
| 1777773421 | 13.89° C | 40% | 1019.4 hPa | 0 mm | - | 0 W/m² | - |
* Rain latest hour (hover to see other rain measurements)
** Current wind speed in m/s (hover to see current wind gust speed)